Time;durP1;ratioP1;P1;durP2;ratioP2;P2;SDS_P1;SDS_P2;PMS_P1;PMS_P2;Temp;Humidity;BMP_temperature;BMP_pressure;BME280_temperature;BME280_humidity;BME280_pressure;Samples;Min_cycle;Max_cycle;Signal;HPM_P1;HPM_P2
2022/05/03 00:00:16;;;;;;;6.63;2.88;;;;;;;12.69;42.31;101842.19;4915854;28;124102;-72
2022/05/03 00:03:09;;;;;;;5.85;2.72;;;;;;;12.65;42.69;101836.97;4937757;28;123811;-72
2022/05/03 00:05:59;;;;;;;3.97;2.67;;;;;;;12.61;42.66;101835.34;4949211;28;114452;-74
2022/05/03 00:08:39;;;;;;;6.40;2.40;;;;;;;12.58;42.74;101835.50;4956731;28;113535;-73
2022/05/03 00:11:09;;;;;;;4.32;2.55;;;;;;;12.55;42.46;101832.94;4948176;28;124301;-73
2022/05/03 00:13:45;;;;;;;4.28;2.28;;;;;;;12.51;42.93;101828.66;4932968;28;124043;-73
2022/05/03 00:16:13;;;;;;;5.03;2.78;;;;;;;12.48;42.89;101828.78;4930672;28;114908;-73
2022/05/03 00:18:44;;;;;;;3.70;2.42;;;;;;;12.44;42.78;101822.69;4939525;28;115139;-73
2022/05/03 00:21:12;;;;;;;3.38;2.35;;;;;;;12.42;42.93;101826.34;4947800;28;123488;-72
2022/05/03 00:23:39;;;;;;;4.35;2.40;;;;;;;12.36;42.76;101823.94;4937753;28;123757;-73
2022/05/03 00:26:06;;;;;;;3.50;2.08;;;;;;;12.32;42.88;101822.28;4944280;28;114421;-73
2022/05/03 00:28:35;;;;;;;3.38;2.20;;;;;;;12.26;42.68;101818.94;4940484;28;113868;-73
2022/05/03 00:31:02;;;;;;;3.83;2.38;;;;;;;12.23;42.81;101823.50;4936304;28;123997;-72
2022/05/03 00:33:33;;;;;;;4.95;2.50;;;;;;;12.21;43.04;101826.22;4949263;28;124254;-73
2022/05/03 00:36:00;;;;;;;4.20;2.45;;;;;;;12.19;43.02;101822.75;4957269;28;113615;-73
2022/05/03 00:38:33;;;;;;;3.63;2.13;;;;;;;12.18;43.07;101831.63;4938787;28;114249;-73
2022/05/03 00:41:04;;;;;;;4.10;2.53;;;;;;;12.17;43.22;101829.91;4919026;28;122164;-73
2022/05/03 00:43:42;;;;;;;3.28;2.05;;;;;;;12.16;43.22;101822.84;4931680;28;125234;-73
2022/05/03 00:46:15;;;;;;;4.47;2.28;;;;;;;12.13;42.95;101822.97;4921572;28;114291;-73
2022/05/03 00:49:12;;;;;;;4.80;2.42;;;;;;;12.10;43.12;101828.38;4949493;28;112989;-73
2022/05/03 00:51:45;;;;;;;4.47;2.38;;;;;;;12.08;43.05;101824.91;4933277;28;123670;-73
2022/05/03 00:54:25;;;;;;;4.57;2.60;;;;;;;12.07;43.08;101817.84;4936529;28;124438;-72
2022/05/03 00:57:17;;;;;;;5.70;2.30;;;;;;;12.05;43.03;101825.00;4956308;28;113219;-73
2022/05/03 01:00:05;;;;;;;4.70;2.40;;;;;;;12.04;43.01;101828.59;4935850;28;113769;-73
2022/05/03 01:02:48;;;;;;;3.38;2.22;;;;;;;12.03;43.11;101826.84;4932219;28;123482;-73
2022/05/03 01:05:25;;;;;;;3.63;2.30;;;;;;;12.02;42.95;101833.09;4929239;28;124450;-73
2022/05/03 01:08:07;;;;;;;4.05;2.35;;;;;;;12.00;42.98;101832.28;4934801;28;114885;-73
2022/05/03 01:10:46;;;;;;;4.25;2.10;;;;;;;11.98;42.88;101829.69;4920022;28;114038;-72
2022/05/03 01:13:33;;;;;;;4.25;2.15;;;;;;;11.95;42.86;101831.59;4927198;28;124270;-73
2022/05/03 01:16:11;;;;;;;3.58;2.10;;;;;;;11.93;42.91;101830.78;4927213;28;122656;-72
2022/05/03 01:19:00;;;;;;;4.80;2.50;;;;;;;11.88;43.12;101823.81;4937857;28;114088;-73
2022/05/03 01:21:49;;;;;;;3.38;2.35;;;;;;;11.86;42.92;101836.25;4933040;28;113411;-72
2022/05/03 01:24:40;;;;;;;3.85;2.40;;;;;;;11.79;43.14;101824.13;4952716;28;123850;-73
2022/05/03 01:27:28;;;;;;;3.28;2.20;;;;;;;11.75;43.09;101827.78;4931688;28;124692;-72
2022/05/03 01:29:58;;;;;;;3.55;2.75;;;;;;;11.71;43.00;101831.47;4934543;28;114304;-73
2022/05/03 01:32:26;;;;;;;3.53;2.13;;;;;;;11.67;42.81;101830.69;4957373;28;114829;-73
2022/05/03 01:34:54;;;;;;;3.40;2.15;;;;;;;11.63;42.80;101833.50;4939538;28;123500;-72
2022/05/03 01:37:52;;;;;;;3.53;1.90;;;;;;;11.55;43.10;101835.56;4942404;28;123699;-74
2022/05/03 01:40:52;;;;;;;3.92;2.30;;;;;;;11.46;43.16;101821.66;4939975;28;114292;-75
2022/05/03 01:43:36;;;;;;;4.50;1.92;;;;;;;11.40;43.50;101827.19;4936249;28;113308;-75
2022/05/03 01:46:20;;;;;;;3.22;2.13;;;;;;;11.34;43.51;101819.44;4939003;28;123764;-75
2022/05/03 01:51:44;;;;;;;2.90;1.98;;;;;;;11.27;43.47;101825.84;4935629;28;114618;-73
2022/05/03 01:54:36;;;;;;;3.03;2.08;;;;;;;11.22;43.61;101827.78;4939588;28;113908;-73
2022/05/03 01:57:36;;;;;;;4.63;2.40;;;;;;;11.16;43.57;101825.31;4944401;28;123947;-72
2022/05/03 02:00:06;;;;;;;4.03;2.50;;;;;;;11.09;43.51;101830.81;4959136;28;123904;-73
2022/05/03 02:02:53;;;;;;;3.80;2.40;;;;;;;11.04;43.76;101824.78;4934094;28;116267;-74
2022/05/03 02:05:48;;;;;;;3.50;2.30;;;;;;;11.01;43.95;101824.03;4952555;28;114565;-73
2022/05/03 02:08:23;;;;;;;3.27;2.10;;;;;;;10.97;43.68;101828.53;4948094;28;122813;-74
2022/05/03 02:11:29;;;;;;;3.45;2.22;;;;;;;10.93;43.86;101821.59;4925117;28;123577;-74
2022/05/03 02:16:57;;;;;;;4.43;2.15;;;;;;;10.89;44.11;101819.97;4936909;28;114181;-73
2022/05/03 02:19:24;;;;;;;4.50;2.17;;;;;;;10.89;43.89;101814.66;4944396;28;124638;-74
2022/05/03 02:22:02;;;;;;;3.13;2.17;;;;;;;10.86;44.28;101815.63;4950666;28;123105;-73
2022/05/03 02:25:02;;;;;;;3.92;2.38;;;;;;;10.84;43.85;101819.25;4957858;28;114309;-74
2022/05/03 02:27:35;;;;;;;3.80;2.38;;;;;;;10.80;44.02;101814.94;4951161;28;114010;-74
2022/05/03 02:30:03;;;;;;;4.30;2.28;;;;;;;10.74;44.02;101820.41;4920631;28;124537;-74
2022/05/03 02:32:35;;;;;;;4.93;2.47;;;;;;;10.69;44.34;101813.47;4936658;28;124236;-73
2022/05/03 02:35:04;;;;;;;4.78;2.38;;;;;;;10.65;44.48;101819.78;4940528;28;114838;-74
2022/05/03 02:37:41;;;;;;;3.80;2.47;;;;;;;10.64;44.39;101820.72;4952030;28;113704;-74
2022/05/03 02:40:11;;;;;;;3.85;2.22;;;;;;;10.62;44.46;101817.22;4913618;28;123146;-73
2022/05/03 02:42:39;;;;;;;6.35;2.20;;;;;;;10.61;44.56;101815.50;4935984;28;124035;-73
2022/05/03 02:45:07;;;;;;;4.85;2.20;;;;;;;10.60;44.43;101813.75;4944629;28;114768;-75
2022/05/03 02:47:53;;;;;;;3.78;2.25;;;;;;;10.59;44.77;101816.47;4951916;28;113704;-74
2022/05/03 02:50:28;;;;;;;;;;;;;;;10.54;44.53;101813.94;4943781;28;124476;-73
2022/05/03 02:53:05;;;;;;;5.00;2.30;;;;;;;10.52;44.35;101810.47;4936069;28;124852;-73
2022/05/03 02:55:58;;;;;;;3.17;2.05;;;;;;;10.50;44.44;101807.84;4938561;28;115403;-74
2022/05/03 02:58:42;;;;;;;4.63;2.28;;;;;;;10.48;44.78;101814.13;4940289;28;112848;-73
2022/05/03 03:04:11;;;;;;;4.50;2.70;;;;;;;10.40;44.69;101810.84;4934386;28;123862;-74
2022/05/03 03:06:42;;;;;;;3.60;1.98;;;;;;;10.37;44.94;101816.22;4935296;28;114071;-74
2022/05/03 03:09:17;;;;;;;3.70;2.70;;;;;;;10.33;44.98;101811.00;4954485;28;113550;-73
2022/05/03 03:11:56;;;;;;;5.37;2.50;;;;;;;10.29;44.89;101819.91;4939969;28;123901;-74
2022/05/03 03:14:39;;;;;;;4.38;2.50;;;;;;;10.25;45.02;101815.59;4936125;28;124008;-74
2022/05/03 03:17:08;;;;;;;5.00;2.60;;;;;;;10.23;44.84;101814.78;4931497;28;113410;-73
2022/05/03 03:20:07;;;;;;;4.22;2.25;;;;;;;10.19;45.29;101815.78;4952581;28;113163;-75
2022/05/03 03:22:37;;;;;;;3.58;1.85;;;;;;;10.17;45.14;101819.38;4936585;28;125149;-73
2022/05/03 03:25:06;;;;;;;5.32;2.65;;;;;;;10.15;45.17;101811.47;4938010;28;124699;-73
2022/05/03 03:27:34;;;;;;;4.82;2.40;;;;;;;10.13;45.46;101813.28;4954696;28;114281;-74
2022/05/03 03:30:05;;;;;;;4.55;2.80;;;;;;;10.12;45.65;101811.56;4938619;28;114196;-75
2022/05/03 03:32:34;;;;;;;4.05;2.60;;;;;;;10.13;45.69;101813.28;4934228;28;124324;-74
2022/05/03 03:35:02;;;;;;;3.88;2.42;;;;;;;10.13;45.52;101813.28;4936235;28;124333;-75
2022/05/03 03:37:34;;;;;;;6.35;2.30;;;;;;;10.13;45.56;101823.88;4960944;28;113763;-74
2022/05/03 03:40:03;;;;;;;4.70;2.60;;;;;;;10.10;45.29;101813.41;4931697;28;113630;-73
2022/05/03 03:42:31;;;;;;;3.60;2.50;;;;;;;10.05;45.23;101820.59;4929900;28;123538;-74
2022/05/03 03:45:07;;;;;;;3.20;2.17;;;;;;;10.00;45.78;101817.19;4924780;28;123642;-75
2022/05/03 03:47:41;;;;;;;3.97;2.28;;;;;;;9.94;45.70;101815.56;4917492;28;114947;-74
2022/05/03 03:50:09;;;;;;;4.28;2.67;;;;;;;9.88;45.56;101816.59;4940441;28;115206;-74
2022/05/03 03:52:41;;;;;;;4.18;2.80;;;;;;;9.85;45.69;101814.06;4939254;28;123006;-74
2022/05/03 03:55:12;;;;;;;4.95;2.67;;;;;;;9.83;45.93;101814.97;4924694;28;123365;-73
2022/05/03 03:57:40;;;;;;;6.03;2.95;;;;;;;9.81;46.12;101817.66;4955900;28;113174;-74
2022/05/03 04:00:13;;;;;;;5.63;3.10;;;;;;;9.80;46.28;101815.94;4937231;28;112825;-75
2022/05/03 04:02:43;;;;;;;4.25;2.65;;;;;;;9.81;46.28;101817.66;4940872;28;124955;-75
2022/05/03 04:05:21;;;;;;;4.90;2.80;;;;;;;9.81;46.20;101825.59;4956135;28;123766;-75
2022/05/03 04:07:50;;;;;;;5.25;2.90;;;;;;;9.81;46.17;101817.66;4941672;28;113737;-73
2022/05/03 04:10:18;;;;;;;5.40;2.80;;;;;;;9.81;46.12;101817.66;4949721;28;113662;-73
2022/05/03 04:12:45;;;;;;;4.20;2.85;;;;;;;9.81;46.15;101822.97;4936590;28;124082;-73
2022/05/03 04:15:13;;;;;;;4.90;2.67;;;;;;;9.82;45.93;101827.34;4921245;28;125032;-75
2022/05/03 04:17:44;;;;;;;6.85;2.95;;;;;;;9.79;46.58;101824.78;4936759;28;114327;-74
2022/05/03 04:20:15;;;;;;;4.10;2.78;;;;;;;9.79;46.43;101827.41;4941968;28;113167;-74
2022/05/03 04:22:42;;;;;;;6.07;2.85;;;;;;;9.78;46.18;101832.78;4937779;28;125026;-73
2022/05/03 04:25:09;;;;;;;3.80;2.67;;;;;;;9.77;46.60;101836.31;4938352;28;124281;-75
2022/05/03 04:27:37;;;;;;;4.55;2.88;;;;;;;9.76;46.55;101824.88;4952334;28;112458;-74
2022/05/03 04:30:05;;;;;;;4.78;3.00;;;;;;;9.74;46.70;101826.69;4952730;28;113349;-74
2022/05/03 04:32:33;;;;;;;4.75;2.83;;;;;;;9.75;46.49;101828.41;4941218;28;124982;-76
2022/05/03 04:35:01;;;;;;;4.75;2.97;;;;;;;9.75;46.72;101829.28;4930747;28;124232;-74
2022/05/03 04:37:28;;;;;;;6.25;2.95;;;;;;;9.75;46.77;101825.78;4934254;28;115282;-72
2022/05/03 04:39:55;;;;;;;7.13;3.10;;;;;;;9.75;46.71;101833.72;4939961;28;115221;-74
2022/05/03 04:42:23;;;;;;;6.68;2.92;;;;;;;9.75;46.72;101823.97;4932454;28;124670;-74
2022/05/03 04:44:50;;;;;;;4.63;2.97;;;;;;;9.78;46.92;101828.34;4953285;28;122623;-75
2022/05/03 04:47:17;;;;;;;6.93;3.03;;;;;;;9.78;46.89;101823.06;4958781;28;114115;-74
2022/05/03 04:49:45;;;;;;;6.18;3.38;;;;;;;9.81;47.14;101828.25;4947086;28;114159;-74
2022/05/03 04:52:12;;;;;;;7.32;3.40;;;;;;;9.84;47.19;101833.47;4943706;28;124194;-74
2022/05/03 04:54:39;;;;;;;6.32;3.72;;;;;;;9.86;47.39;101825.50;4940705;28;124832;-74
2022/05/03 04:57:07;;;;;;;7.15;3.20;;;;;;;9.88;47.08;101840.41;4938334;28;114059;-75
2022/05/03 04:59:36;;;;;;;7.38;3.08;;;;;;;9.90;47.22;101833.31;4941619;28;113923;-75
2022/05/03 05:02:03;;;;;;;5.40;3.13;;;;;;;9.93;47.26;101835.03;4955261;28;125674;-74
2022/05/03 05:04:31;;;;;;;8.25;3.35;;;;;;;9.96;47.63;101836.72;4936467;28;123980;-76
2022/05/03 05:06:58;;;;;;;8.10;3.72;;;;;;;10.00;47.72;101838.34;4953492;28;114196;-75
2022/05/03 05:09:25;;;;;;;8.55;3.75;;;;;;;10.04;47.70;101845.28;4948075;28;113939;-75
2022/05/03 05:11:52;;;;;;;7.32;3.80;;;;;;;10.07;47.42;101846.09;4935830;28;123870;-75
2022/05/03 05:14:20;;;;;;;8.65;3.83;;;;;;;10.10;47.64;101855.75;4943753;28;123949;-75
2022/05/03 05:16:49;;;;;;;6.55;3.67;;;;;;;10.13;47.49;101855.63;4943204;28;113649;-75
2022/05/03 05:19:16;;;;;;;6.47;3.95;;;;;;;10.16;47.52;101850.28;4932524;28;114504;-76
2022/05/03 05:21:44;;;;;;;6.88;4.00;;;;;;;10.20;47.78;101859.88;4931285;28;124058;-74
2022/05/03 05:24:11;;;;;;;7.75;3.90;;;;;;;10.24;47.97;101853.56;4957462;28;124556;-74
2022/05/03 05:26:41;;;;;;;7.43;4.10;;;;;;;10.29;47.83;101856.97;4941903;28;114332;-74
2022/05/03 05:29:08;;;;;;;6.28;3.97;;;;;;;10.35;48.03;101855.09;4953130;28;112724;-73
2022/05/03 05:31:36;;;;;;;6.32;4.18;;;;;;;10.43;48.23;101861.03;4957289;28;123062;-73
2022/05/03 05:34:03;;;;;;;6.53;4.10;;;;;;;10.51;48.32;101867.03;4940001;28;124700;-74
2022/05/03 05:36:30;;;;;;;6.97;4.13;;;;;;;10.58;48.40;101862.41;4930484;28;113790;-74
2022/05/03 05:38:57;;;;;;;10.77;4.47;;;;;;;10.65;48.52;101858.66;4932250;28;113963;-73
2022/05/03 05:41:24;;;;;;;8.45;4.10;;;;;;;10.73;48.57;101855.78;4936791;28;124300;-73
2022/05/03 05:43:51;;;;;;;6.95;4.15;;;;;;;10.82;48.51;101866.13;4930627;28;123975;-73
2022/05/03 05:46:18;;;;;;;8.90;4.32;;;;;;;10.89;48.67;101867.69;4943228;28;113888;-73
2022/05/03 05:48:45;;;;;;;7.70;3.97;;;;;;;10.98;48.42;101872.72;4952315;28;113802;-74
2022/05/03 05:51:14;;;;;;;8.50;4.20;;;;;;;11.05;48.56;101863.63;4933509;28;123660;-74
2022/05/03 05:53:43;;;;;;;8.25;4.07;;;;;;;11.14;48.71;101866.94;4953107;28;123849;-74
2022/05/03 05:56:11;;;;;;;10.65;4.05;;;;;;;11.24;48.48;101863.06;4939385;28;114253;-74
2022/05/03 05:58:45;;;;;;;7.03;3.88;;;;;;;11.32;48.42;101866.34;4960386;28;113015;-73
2022/05/03 06:01:13;;;;;;;6.78;4.05;;;;;;;11.41;48.72;101865.19;4942906;28;124517;-74
2022/05/03 06:03:42;;;;;;;8.48;4.35;;;;;;;11.50;48.50;101871.06;4939985;28;123779;-74
2022/05/03 06:06:09;;;;;;;6.95;3.95;;;;;;;11.59;48.59;101869.03;4949612;28;115205;-73
2022/05/03 06:08:37;;;;;;;9.50;4.28;;;;;;;11.66;48.29;101865.28;4961256;28;113086;-74
2022/05/03 06:11:04;;;;;;;8.10;4.30;;;;;;;11.75;48.35;101869.38;4934143;28;124671;-74
2022/05/03 06:13:31;;;;;;;7.10;4.30;;;;;;;11.82;48.43;101877.09;4947460;28;125175;-73
2022/05/03 06:16:08;;;;;;;8.68;4.53;;;;;;;11.89;48.39;101872.44;4931143;28;115167;-73
2022/05/03 06:18:36;;;;;;;10.52;4.60;;;;;;;11.96;48.22;101870.47;4940755;28;115215;-74
2022/05/03 06:21:05;;;;;;;9.05;4.43;;;;;;;12.03;48.26;101875.50;4939697;28;124761;-73
2022/05/03 06:23:32;;;;;;;7.95;4.53;;;;;;;12.11;48.28;101872.63;4942289;28;124315;-73
2022/05/03 06:26:00;;;;;;;7.95;4.68;;;;;;;12.19;48.48;101870.56;4941280;28;114077;-76
2022/05/03 06:28:27;;;;;;;16.58;5.15;;;;;;;12.30;48.37;101866.63;4942511;28;114414;-73
2022/05/03 06:30:54;;;;;;;8.27;4.50;;;;;;;12.41;48.35;101875.09;4936937;28;124230;-73
2022/05/03 06:33:21;;;;;;;10.43;4.57;;;;;;;12.52;48.16;101872.91;4947936;28;123062;-74
2022/05/03 06:35:48;;;;;;;11.63;5.28;;;;;;;12.64;48.29;101866.28;4943222;28;113511;-74
2022/05/03 06:38:15;;;;;;;11.55;4.60;;;;;;;12.80;48.32;101871.88;4954068;28;113913;-74
2022/05/03 06:40:43;;;;;;;9.10;4.60;;;;;;;12.96;48.25;101878.34;4933777;28;124411;-73
2022/05/03 06:43:10;;;;;;;9.32;4.18;;;;;;;13.14;48.18;101875.91;4948814;28;124227;-74
2022/05/03 06:45:37;;;;;;;7.18;4.13;;;;;;;13.31;48.12;101884.09;4941923;28;115712;-74
2022/05/03 06:48:06;;;;;;;6.70;3.65;;;;;;;13.49;47.88;101876.34;4957082;28;113152;-73
2022/05/03 06:50:33;;;;;;;8.77;4.47;;;;;;;13.66;47.70;101876.50;4937028;28;123155;-73
2022/05/03 06:53:00;;;;;;;8.52;4.53;;;;;;;13.81;47.59;101878.53;4939141;28;123594;-72
2022/05/03 06:55:27;;;;;;;11.57;4.45;;;;;;;13.98;47.60;101879.63;4940172;28;114458;-73
2022/05/03 06:57:54;;;;;;;7.00;3.70;;;;;;;14.18;47.27;101882.28;4937020;28;115246;-72
2022/05/03 07:00:22;;;;;;;7.95;4.25;;;;;;;14.38;47.36;101877.88;4946662;28;122978;-74
2022/05/03 07:02:49;;;;;;;10.18;3.65;;;;;;;14.58;47.24;101875.22;4940931;28;124120;-73
2022/05/03 07:05:17;;;;;;;6.05;3.67;;;;;;;14.80;46.74;101874.22;4919815;28;115756;-72
2022/05/03 07:07:44;;;;;;;6.47;3.33;;;;;;;14.99;46.28;101869.75;4928589;28;113938;-74
2022/05/03 07:10:11;;;;;;;6.10;3.55;;;;;;;15.19;46.13;101881.28;4938244;28;123328;-73
2022/05/03 07:12:38;;;;;;;6.28;3.80;;;;;;;15.37;45.58;101880.41;4939513;28;123713;-73
2022/05/03 07:15:07;;;;;;;5.28;3.28;;;;;;;15.52;45.10;101883.25;4943941;28;112049;-72
2022/05/03 07:23:08;;;;;;;;;;;;;;;15.98;44.59;101878.31;4931882;28;123818;-73
2022/05/03 07:25:35;;;;;;;5.82;2.75;;;;;;;16.17;44.23;101880.03;4938967;28;115542;-73
2022/05/03 07:28:03;;;;;;;3.90;2.50;;;;;;;16.37;43.96;101885.22;4934255;28;114161;-72
2022/05/03 07:30:30;;;;;;;8.43;3.13;;;;;;;16.57;43.88;101877.94;4945596;28;125332;-72
2022/05/03 07:32:57;;;;;;;4.22;2.30;;;;;;;16.73;42.79;101884.19;4946110;28;122873;-71
2022/05/03 07:35:25;;;;;;;5.50;2.30;;;;;;;16.85;41.82;101888.88;4931366;28;114115;-73
2022/05/03 07:37:52;;;;;;;4.15;2.50;;;;;;;16.96;41.12;101890.13;4946040;28;114614;-74
2022/05/03 07:40:19;;;;;;;4.25;2.38;;;;;;;17.05;40.85;101894.97;4934051;28;126297;-73
2022/05/03 07:42:46;;;;;;;4.60;2.50;;;;;;;17.15;40.62;101896.16;4936121;28;123633;-73
2022/05/03 07:45:15;;;;;;;5.18;2.33;;;;;;;17.25;40.72;101892.03;4942503;28;113037;-73
2022/05/03 07:47:42;;;;;;;2.28;1.40;;;;;;;17.41;39.78;101885.81;4949909;28;114394;-73
2022/05/03 07:50:10;;;;;;;3.38;2.10;;;;;;;17.51;39.10;101887.84;4948458;28;123602;-73
2022/05/03 07:52:38;;;;;;;3.25;1.98;;;;;;;17.59;38.50;101890.09;4937543;28;123768;-73
2022/05/03 07:55:08;;;;;;;3.38;1.90;;;;;;;17.69;38.33;101891.28;4933023;28;114626;-73
2022/05/03 07:57:36;;;;;;;4.00;1.88;;;;;;;17.79;38.08;101893.44;4941240;28;115183;-73
2022/05/03 08:00:06;;;;;;;3.38;2.05;;;;;;;17.87;37.54;101888.50;4936117;28;123799;-73
2022/05/03 08:02:33;;;;;;;3.60;1.92;;;;;;;17.92;36.94;101885.56;4935382;28;122965;-73
2022/05/03 08:05:01;;;;;;;4.10;1.85;;;;;;;17.96;36.74;101887.97;4934753;28;114413;-73
2022/05/03 08:07:28;;;;;;;2.67;2.05;;;;;;;18.01;36.94;101891.25;4929871;28;114160;-73
2022/05/03 08:09:55;;;;;;;2.60;2.00;;;;;;;18.11;37.17;101890.69;4927891;28;124307;-73
2022/05/03 08:12:22;;;;;;;3.10;1.90;;;;;;;18.19;37.39;101885.72;4930933;28;123700;-72
2022/05/03 08:14:49;;;;;;;4.30;1.90;;;;;;;18.29;37.31;101889.59;4945582;28;113912;-71
2022/05/03 08:17:16;;;;;;;2.70;1.73;;;;;;;18.44;36.70;101893.13;4945512;28;113914;-72
2022/05/03 08:19:44;;;;;;;4.28;2.22;;;;;;;18.55;36.75;101887.09;4928161;28;124713;-72
2022/05/03 08:22:11;;;;;;;3.45;1.80;;;;;;;18.65;36.30;101890.97;4930113;28;123814;-72
2022/05/03 08:24:39;;;;;;;4.03;2.13;;;;;;;18.73;36.16;101888.66;4945510;28;112495;-72
2022/05/03 08:27:06;;;;;;;3.47;1.98;;;;;;;18.80;36.31;101889.13;4929387;28;114128;-73
2022/05/03 08:29:33;;;;;;;3.42;1.95;;;;;;;18.90;35.82;101889.44;4945396;28;123080;-72
2022/05/03 08:32:01;;;;;;;4.18;2.00;;;;;;;18.94;35.63;101890.97;4930311;28;124912;-73
2022/05/03 08:34:28;;;;;;;4.03;1.92;;;;;;;19.00;35.45;101890.56;4924478;28;114385;-72
2022/05/03 08:42:28;;;;;;;3.85;2.08;;;;;;;19.15;34.99;101894.94;4931131;28;124305;-73
2022/05/03 08:44:59;;;;;;;2.85;1.95;;;;;;;19.22;34.92;101896.28;4957242;28;113604;-73
2022/05/03 08:47:30;;;;;;;2.58;1.65;;;;;;;19.30;34.59;101892.25;4943537;28;115135;-73
2022/05/03 08:50:12;;;;;;;4.53;2.38;;;;;;;19.35;34.32;101890.13;4938739;28;123819;-72
2022/05/03 08:52:43;;;;;;;3.88;2.17;;;;;;;19.39;34.44;101888.94;4927642;28;124117;-72
2022/05/03 08:55:14;;;;;;;3.92;2.47;;;;;;;19.43;34.57;101887.78;4934646;28;114699;-73
2022/05/03 08:57:45;;;;;;;4.55;2.53;;;;;;;19.50;34.26;101889.09;4944257;28;114549;-73
2022/05/03 09:00:13;;;;;;;3.42;2.40;;;;;;;19.56;34.30;101894.06;4935308;28;124040;-72
2022/05/03 09:02:47;;;;;;;4.40;2.40;;;;;;;19.61;34.15;101894.63;4932935;28;122812;-73
2022/05/03 09:05:15;;;;;;;4.85;2.63;;;;;;;19.69;34.49;101898.63;4946206;28;113918;-73
2022/05/03 09:07:49;;;;;;;5.68;2.47;;;;;;;19.74;34.11;101896.50;4923956;28;114540;-73
2022/05/03 09:10:19;;;;;;;4.13;2.50;;;;;;;19.79;34.26;101894.38;4946777;28;123288;-73
2022/05/03 09:12:49;;;;;;;4.53;2.65;;;;;;;19.85;34.36;101899.34;4939942;28;123595;-72
2022/05/03 09:15:30;;;;;;;5.03;3.08;;;;;;;19.90;34.09;101891.84;4954559;28;114056;-72
2022/05/03 09:17:59;;;;;;;5.75;2.90;;;;;;;19.95;34.04;101892.41;4932829;28;114172;-72
2022/05/03 09:26:20;;;;;;;5.45;3.40;;;;;;;20.00;34.24;101898.34;4939316;28;113962;-73
2022/05/03 09:29:08;;;;;;;5.28;3.45;;;;;;;20.02;34.42;101891.00;4952331;28;114078;-72
2022/05/03 09:31:43;;;;;;;;;;;;;;;20.05;35.09;101894.47;4952053;28;123424;-73
2022/05/03 09:34:19;;;;;;;5.13;3.55;;;;;;;20.12;34.47;101890.38;4942576;28;124232;-73
2022/05/03 09:36:58;;;;;;;6.00;3.58;;;;;;;20.18;34.24;101895.34;4942938;28;114866;-72
2022/05/03 09:39:41;;;;;;;5.38;3.33;;;;;;;20.17;34.08;101888.22;4952963;28;115278;-72
2022/05/03 09:42:20;;;;;;;4.60;3.33;;;;;;;20.21;34.62;101897.78;4952658;28;123873;-73
2022/05/03 09:44:58;;;;;;;5.93;3.60;;;;;;;20.29;34.79;101887.38;4949585;28;123135;-72
2022/05/03 09:47:32;;;;;;;5.93;3.78;;;;;;;20.38;34.86;101892.13;4941186;28;113480;-72
2022/05/03 09:50:01;;;;;;;6.68;3.45;;;;;;;20.50;34.88;101889.53;4948704;28;114443;-72
2022/05/03 09:52:29;;;;;;;5.63;3.80;;;;;;;20.63;34.56;101890.44;4951855;28;124039;-72
2022/05/03 09:55:07;;;;;;;5.38;3.78;;;;;;;20.69;34.61;101881.91;4934410;28;124095;-73
2022/05/03 09:57:39;;;;;;;5.15;3.72;;;;;;;20.76;34.62;101885.03;4933383;28;114052;-74
2022/05/03 10:00:09;;;;;;;6.47;3.83;;;;;;;20.85;34.35;101889.78;4948631;28;113854;-73
2022/05/03 10:02:42;;;;;;;6.80;3.78;;;;;;;20.95;34.73;101887.25;4932924;28;124260;-73
2022/05/03 10:05:14;;;;;;;6.72;4.03;;;;;;;21.03;35.16;101884.88;4950676;28;123923;-74
2022/05/03 10:07:44;;;;;;;6.90;3.78;;;;;;;21.11;34.95;101885.16;4934766;28;114942;-73
2022/05/03 10:10:14;;;;;;;5.68;3.53;;;;;;;21.15;34.87;101875.91;4952875;28;113928;-73
2022/05/03 10:12:43;;;;;;;5.05;3.63;;;;;;;21.18;34.96;101883.75;4933449;28;123514;-73
2022/05/03 10:15:11;;;;;;;5.72;3.85;;;;;;;21.19;34.59;101882.78;4932724;28;123106;-74
2022/05/03 10:20:44;;;;;;;5.20;3.53;;;;;;;21.22;34.68;101870.91;4941696;28;113899;-72
2022/05/03 10:23:23;;;;;;;;;;;;;;;21.15;35.02;101870.50;4942385;28;123991;-73
2022/05/03 10:25:51;;;;;;;5.22;3.28;;;;;;;21.12;34.61;101878.81;4965748;28;123528;-73
2022/05/03 10:28:19;;;;;;;7.70;3.92;;;;;;;21.05;34.53;101869.44;4955396;28;114016;-72
2022/05/03 10:31:04;;;;;;;7.95;4.20;;;;;;;21.02;35.01;101869.69;4962668;28;114806;-71
2022/05/03 10:33:31;;;;;;;7.35;4.03;;;;;;;21.04;34.43;101873.13;4943943;28;125454;-72
2022/05/03 10:36:00;;;;;;;4.85;3.30;;;;;;;21.05;34.96;101872.13;4955784;28;122181;-72
2022/05/03 10:38:46;;;;;;;4.93;3.50;;;;;;;21.08;35.06;101869.22;4956771;28;113914;-71
2022/05/03 10:41:23;;;;;;;5.30;3.50;;;;;;;21.09;34.81;101865.56;4949909;28;114724;-71
2022/05/03 10:43:50;;;;;;;4.82;3.38;;;;;;;21.06;34.47;101860.41;4968664;28;122276;-72
2022/05/03 10:46:22;;;;;;;6.70;4.22;;;;;;;21.00;34.04;101863.53;4952454;28;124148;-72
2022/05/03 10:49:14;;;;;;;6.57;3.75;;;;;;;20.89;34.18;101858.06;4955347;28;115036;-72
2022/05/03 10:51:42;;;;;;;5.80;3.47;;;;;;;20.88;34.33;101856.34;4954548;28;113366;-72
2022/05/03 10:54:09;;;;;;;5.13;3.67;;;;;;;20.96;34.95;101864.72;4957125;28;124728;-70
2022/05/03 10:57:08;;;;;;;7.97;3.50;;;;;;;21.11;35.02;101858.22;4980390;28;125185;-71
2022/05/03 10:59:48;;;;;;;5.60;3.15;;;;;;;21.22;34.89;101853.88;4966109;28;113847;-71
2022/05/03 11:02:16;;;;;;;6.55;3.75;;;;;;;21.30;35.10;101852.31;4977068;28;111693;-69
2022/05/03 11:05:13;;;;;;;6.13;3.88;;;;;;;21.38;34.86;101849.09;4947178;28;123173;-71
2022/05/03 11:07:41;;;;;;;5.75;3.47;;;;;;;21.44;34.46;101848.66;4950621;28;124011;-71
2022/05/03 11:10:40;;;;;;;7.78;4.03;;;;;;;21.51;34.50;101844.53;4950933;28;114908;-72
2022/05/03 11:13:35;;;;;;;5.57;3.72;;;;;;;21.64;34.78;101838.19;4945531;28;113471;-72
2022/05/03 11:16:23;;;;;;;5.60;3.45;;;;;;;21.78;34.33;101840.69;4964512;28;125857;-72
2022/05/03 11:18:52;;;;;;;3.70;2.70;;;;;;;21.87;34.42;101845.38;4948160;28;123546;-71
2022/05/03 11:21:19;;;;;;;4.80;2.97;;;;;;;21.93;34.09;101839.50;4943187;28;115385;-71
2022/05/03 11:23:51;;;;;;;5.30;2.88;;;;;;;21.99;33.94;101831.94;4946782;28;114550;-71
2022/05/03 11:26:20;;;;;;;4.80;3.20;;;;;;;22.08;34.18;101825.81;4934872;28;124282;-72
2022/05/03 11:28:49;;;;;;;4.45;2.63;;;;;;;22.18;34.04;101821.41;4935170;28;124827;-72
2022/05/03 11:31:19;;;;;;;4.72;2.20;;;;;;;22.30;33.99;101825.88;4951580;28;114446;-75
2022/05/03 11:33:49;;;;;;;3.10;1.90;;;;;;;22.42;33.78;101817.78;4952331;28;114343;-72
2022/05/03 11:36:16;;;;;;;4.15;2.08;;;;;;;22.55;33.83;101813.13;4951755;28;123348;-73
2022/05/03 11:38:46;;;;;;;3.70;2.35;;;;;;;22.70;33.63;101811.88;4935558;28;123977;-71
2022/05/03 11:41:27;;;;;;;4.10;2.47;;;;;;;22.80;32.94;101816.53;4943839;28;114156;-72
2022/05/03 11:43:55;;;;;;;4.13;3.10;;;;;;;22.86;32.74;101816.88;4934965;28;113195;-73
2022/05/03 11:46:23;;;;;;;5.35;3.13;;;;;;;22.92;32.74;101804.69;4934568;28;123928;-72
2022/05/03 11:49:08;;;;;;;5.50;3.42;;;;;;;22.97;32.57;101807.03;4953407;28;123270;-71
2022/05/03 11:57:21;;;;;;;5.55;3.22;;;;;;;23.13;32.71;101802.97;4944969;28;123366;-72
2022/05/03 11:59:58;;;;;;;5.30;4.05;;;;;;;23.18;32.12;101793.63;4947043;28;123785;-72
2022/05/03 12:02:36;;;;;;;5.22;3.60;;;;;;;23.16;32.34;101790.19;4936691;28;114454;-73
2022/05/03 12:05:07;;;;;;;4.15;3.25;;;;;;;23.10;32.22;101792.41;4936746;28;113620;-73
2022/05/03 12:07:38;;;;;;;7.38;3.38;;;;;;;23.04;32.20;101792.91;4953282;28;124778;-72
2022/05/03 12:10:16;;;;;;;9.45;3.75;;;;;;;23.03;32.42;101783.09;4938976;28;123821;-74
2022/05/03 12:12:43;;;;;;;4.38;3.45;;;;;;;23.04;32.63;101782.13;4956183;28;115278;-73
2022/05/03 12:15:21;;;;;;;5.55;3.53;;;;;;;23.06;32.68;101776.59;4952983;28;114582;-73
2022/05/03 12:17:51;;;;;;;5.53;3.83;;;;;;;23.12;32.88;101779.63;4932714;28;123668;-73